Pagrindinis puslapis
METAR-TAF:

METAR-TAF

Oro uostai :

Brownwood, Teksasas, Jungtinės Amerikos Valstijos

platuma: 31-48N, ilguma: 098-57W, Aukštis: 422 m

Dabartinis oras

Ataskaita buvo paskelbta 21 minutes, ne 16:55 UTC
Vėjas 12 kt iš Šiaurės su gūsio iki 19 kt
Temperatūra 16°C
Drėgmė 59%
Slėgis 1021 hPa
Matomumas: 16.1 km
Giedras dangus

METAR: KBWD 311655Z AUTO 01012G19KT 10SM CLR 16/08 A3014 RMK AO1

Laikas: 12:16 (17:16 UTC)


TAF: trūkstamas

Orai ataskaitas ir orų prognozės (METAR, TAF).

turimą stotys yra geltonos ir raudonos taškus žemėlapyje.

Perkelti pele per norėdami pamatyti stoties vardą.

Tada spustelėkite, norėdami matyti oro stebėjimo ir prognozės.

Norėdami pakeisti žemėlapį: spustelėkite ant žalios mygtukų su juodo kryžiaus žemyn,; žalią mygtuką su brūkšneliu, jei norite nutolinti; arba žalių rodyklių gretimoms žemėlapius.


METAR-TAF: